createdAt,value
2023-04-20T00:02:18.313Z,5.81
2023-04-20T00:04:46.968Z,5.87
2023-04-20T00:07:14.189Z,5.88
2023-04-20T00:09:41.728Z,5.79
2023-04-20T00:12:09.194Z,5.75
2023-04-20T00:14:36.616Z,5.68
2023-04-20T00:17:04.048Z,5.66
2023-04-20T00:19:33.456Z,5.66
2023-04-20T00:22:01.297Z,5.62
2023-04-20T00:24:28.665Z,5.63
2023-04-20T00:26:56.713Z,5.63
2023-04-20T00:29:24.107Z,5.59
2023-04-20T00:31:51.466Z,5.55
2023-04-20T00:34:18.879Z,5.65
2023-04-20T00:36:46.280Z,5.56
2023-04-20T00:39:13.706Z,5.59
2023-04-20T00:41:41.095Z,5.56
2023-04-20T00:44:11.442Z,5.46
2023-04-20T00:46:38.869Z,5.42
2023-04-20T00:49:07.377Z,5.38
2023-04-20T00:51:35.823Z,5.30
2023-04-20T00:54:03.569Z,5.33
2023-04-20T00:56:31.032Z,5.26
2023-04-20T00:58:58.835Z,5.21
2023-04-20T01:01:26.206Z,5.17
2023-04-20T01:03:54.230Z,5.19
2023-04-20T01:06:21.892Z,5.11
2023-04-20T01:08:50.737Z,5.07
2023-04-20T01:11:18.422Z,5.12
2023-04-20T01:13:46.191Z,5.06
2023-04-20T01:16:13.736Z,5.12
2023-04-20T01:18:44.237Z,5.07
2023-04-20T01:21:13.493Z,5.10
2023-04-20T01:23:41.081Z,5.01
2023-04-20T01:26:14.249Z,4.97
2023-04-20T01:28:41.840Z,4.97
2023-04-20T01:31:10.216Z,4.96
2023-04-20T01:33:37.641Z,4.94
2023-04-20T01:36:07.651Z,4.95
2023-04-20T01:38:35.334Z,4.96
2023-04-20T01:41:08.243Z,4.92
2023-04-20T01:43:37.098Z,4.90
2023-04-20T01:46:05.307Z,4.86
2023-04-20T01:48:33.076Z,4.76
2023-04-20T01:51:00.410Z,4.81
2023-04-20T01:53:28.026Z,4.69
2023-04-20T01:55:55.608Z,4.80
2023-04-20T01:58:23.074Z,4.82
2023-04-20T02:00:50.536Z,4.88
2023-04-20T02:03:18.108Z,4.80
2023-04-20T02:05:45.592Z,4.71
2023-04-20T02:08:12.680Z,4.63
2023-04-20T02:10:40.001Z,4.58
2023-04-20T02:13:07.319Z,4.62
2023-04-20T02:15:34.668Z,4.63
2023-04-20T02:18:01.842Z,4.65
2023-04-20T02:20:29.441Z,4.56
2023-04-20T02:22:56.835Z,4.65
2023-04-20T02:25:24.233Z,4.62
2023-04-20T02:27:51.602Z,4.72
2023-04-20T02:30:19.056Z,4.62
2023-04-20T02:32:46.540Z,4.60
2023-04-20T02:35:13.956Z,4.66
2023-04-20T02:37:41.313Z,4.73
2023-04-20T02:40:09.065Z,4.63
2023-04-20T02:42:36.480Z,4.71
2023-04-20T02:45:04.109Z,4.75
2023-04-20T02:47:31.494Z,4.69
2023-04-20T02:49:58.928Z,4.79
2023-04-20T02:52:26.278Z,4.83
2023-04-20T02:54:53.638Z,4.92
2023-04-20T02:57:21.055Z,4.85
2023-04-20T02:59:48.455Z,4.96
2023-04-20T03:02:16.102Z,4.94
2023-04-20T03:04:43.749Z,4.94
2023-04-20T03:07:11.290Z,5.04
2023-04-20T03:09:38.694Z,5.05
2023-04-20T03:12:06.343Z,5.10
2023-04-20T03:14:33.719Z,5.14
2023-04-20T03:17:01.708Z,5.11
2023-04-20T03:19:29.334Z,5.19
2023-04-20T03:21:56.741Z,5.20
2023-04-20T03:24:24.182Z,5.23
2023-04-20T03:26:51.546Z,5.22
2023-04-20T03:29:19.083Z,5.29
2023-04-20T03:31:46.604Z,5.31
2023-04-20T03:34:14.115Z,5.34
2023-04-20T03:36:41.447Z,5.31
2023-04-20T03:39:09.511Z,5.28
2023-04-20T03:41:36.936Z,5.31
2023-04-20T03:44:04.477Z,5.30
2023-04-20T03:46:31.798Z,5.29
2023-04-20T03:49:01.601Z,5.26
2023-04-20T03:51:29.156Z,5.27
2023-04-20T03:53:56.104Z,5.23
2023-04-20T03:56:23.466Z,5.27
2023-04-20T03:58:54.339Z,5.25
2023-04-20T04:01:21.664Z,5.26
2023-04-20T04:03:49.388Z,5.23
2023-04-20T04:06:16.914Z,5.27
2023-04-20T04:08:43.826Z,5.21
2023-04-20T04:11:11.255Z,5.18
2023-04-20T04:13:38.656Z,5.21
2023-04-20T04:16:06.477Z,5.10
2023-04-20T04:18:33.508Z,5.07
2023-04-20T04:21:00.904Z,5.07
2023-04-20T04:23:28.286Z,5.05
2023-04-20T04:25:57.265Z,5.10
2023-04-20T04:28:24.446Z,5.07
2023-04-20T04:30:52.473Z,5.05
2023-04-20T04:33:20.256Z,5.01
2023-04-20T04:35:48.593Z,5.00
2023-04-20T04:38:16.276Z,5.00
2023-04-20T04:40:46.042Z,5.05
2023-04-20T04:43:13.482Z,5.04
2023-04-20T04:45:41.092Z,5.03
2023-04-20T04:48:12.001Z,4.99
2023-04-20T04:50:39.785Z,5.04
2023-04-20T04:53:07.402Z,5.01
2023-04-20T04:55:34.976Z,4.96
2023-04-20T04:58:02.772Z,4.95
2023-04-20T05:00:31.393Z,5.03
2023-04-20T05:02:58.959Z,4.96
2023-04-20T05:05:26.620Z,4.95
2023-04-20T05:07:53.947Z,4.90
2023-04-20T05:10:21.345Z,4.94
2023-04-20T05:12:48.803Z,4.87
2023-04-20T05:15:16.235Z,5.01
2023-04-20T05:17:43.820Z,5.00
2023-04-20T05:20:11.978Z,4.97
2023-04-20T05:22:39.326Z,4.94
2023-04-20T05:25:07.156Z,4.96
2023-04-20T05:27:34.752Z,4.94
2023-04-20T05:30:13.171Z,4.97
2023-04-20T05:32:49.335Z,5.01
2023-04-20T05:35:18.826Z,4.97
2023-04-20T05:37:47.703Z,4.93
2023-04-20T05:40:15.862Z,4.98
2023-04-20T05:42:43.264Z,5.00
2023-04-20T05:45:11.337Z,4.98
2023-04-20T05:47:38.740Z,4.93
2023-04-20T05:50:06.782Z,5.00
2023-04-20T05:52:33.816Z,5.10
2023-04-20T05:55:01.186Z,5.04
2023-04-20T05:57:28.301Z,5.06
2023-04-20T05:59:56.191Z,5.02
2023-04-20T06:02:23.772Z,5.05
2023-04-20T06:04:51.475Z,5.17
2023-04-20T06:07:19.028Z,5.21
2023-04-20T06:09:46.347Z,5.22
2023-04-20T06:12:13.960Z,5.23
2023-04-20T06:14:41.042Z,5.22
2023-04-20T06:17:08.428Z,5.31
2023-04-20T06:19:35.376Z,5.38
2023-04-20T06:22:09.430Z,5.55
2023-04-20T06:24:38.747Z,5.56
2023-04-20T06:27:06.114Z,5.67
2023-04-20T06:29:33.504Z,5.74
2023-04-20T06:32:00.997Z,5.76
2023-04-20T06:34:28.189Z,5.96
2023-04-20T06:36:55.742Z,5.96
2023-04-20T06:39:23.131Z,5.90
2023-04-20T06:41:50.317Z,5.96
2023-04-20T06:44:17.646Z,5.94
2023-04-20T06:46:45.150Z,5.95
2023-04-20T06:49:12.574Z,5.89
2023-04-20T06:51:40.186Z,6.05
2023-04-20T06:54:07.542Z,6.09
2023-04-20T06:56:35.672Z,6.14
2023-04-20T06:59:03.304Z,6.32
2023-04-20T07:01:30.891Z,6.38
2023-04-20T07:03:58.504Z,6.44
2023-04-20T07:06:28.275Z,6.48
2023-04-20T07:08:55.661Z,6.59
2023-04-20T07:11:24.856Z,6.70
2023-04-20T07:13:51.883Z,6.88
2023-04-20T07:16:18.988Z,6.81
2023-04-20T07:18:46.570Z,6.77
2023-04-20T07:21:15.362Z,6.55
2023-04-20T07:23:44.842Z,6.92
2023-04-20T07:26:12.704Z,7.50
2023-04-20T07:28:40.204Z,7.57
2023-04-20T07:31:07.203Z,8.02
2023-04-20T07:33:36.177Z,8.27
2023-04-20T07:36:04.755Z,8.06
2023-04-20T07:38:32.086Z,7.95
2023-04-20T07:40:59.763Z,8.11
2023-04-20T07:43:26.877Z,8.23
2023-04-20T07:45:53.882Z,8.34
2023-04-20T07:48:21.376Z,8.34
2023-04-20T07:50:48.741Z,8.63
2023-04-20T07:53:16.127Z,8.26
2023-04-20T07:55:43.465Z,8.23
2023-04-20T07:58:10.658Z,8.38
2023-04-20T08:00:38.008Z,8.63
2023-04-20T08:03:06.121Z,8.66
2023-04-20T08:05:33.755Z,9.30
2023-04-20T08:08:01.203Z,8.82
2023-04-20T08:10:28.179Z,9.29
2023-04-20T08:12:55.692Z,9.55
2023-04-20T08:15:22.787Z,9.54
2023-04-20T08:17:49.757Z,9.54
2023-04-20T08:20:16.776Z,9.80
2023-04-20T08:22:43.729Z,9.68
2023-04-20T08:25:11.299Z,10.15
2023-04-20T08:27:38.785Z,10.08
2023-04-20T08:30:07.069Z,9.99
2023-04-20T08:32:34.445Z,10.01
2023-04-20T08:35:01.621Z,9.69
2023-04-20T08:37:31.297Z,9.99
2023-04-20T08:39:59.738Z,10.04
2023-04-20T08:42:27.056Z,9.97
2023-04-20T08:44:54.398Z,10.20
2023-04-20T08:47:21.997Z,10.00
2023-04-20T08:49:53.407Z,10.18
2023-04-20T08:52:20.443Z,10.17
2023-04-20T08:54:55.904Z,10.31
2023-04-20T08:57:25.925Z,10.40
2023-04-20T08:59:53.505Z,10.72
2023-04-20T09:02:22.033Z,10.12
2023-04-20T09:04:49.984Z,10.64
2023-04-20T09:07:20.951Z,10.50
2023-04-20T09:09:59.150Z,10.66
2023-04-20T09:12:27.346Z,10.64
2023-04-20T09:14:54.944Z,10.39
2023-04-20T09:17:34.724Z,10.69
2023-04-20T09:20:02.319Z,10.60
2023-04-20T09:22:39.038Z,11.07
2023-04-20T09:25:20.196Z,10.62
2023-04-20T09:27:58.837Z,10.78
2023-04-20T09:30:33.284Z,11.39
2023-04-20T09:33:04.852Z,11.04
2023-04-20T09:35:32.352Z,11.63
2023-04-20T09:37:59.768Z,11.51
2023-04-20T09:40:27.771Z,11.90
2023-04-20T09:42:55.258Z,12.14
2023-04-20T09:45:22.704Z,11.78
2023-04-20T09:47:51.262Z,12.02
2023-04-20T09:50:31.767Z,12.16
2023-04-20T09:53:02.771Z,12.15
2023-04-20T09:55:32.417Z,11.95
2023-04-20T09:58:04.265Z,11.56
2023-04-20T10:00:31.703Z,12.63
2023-04-20T10:02:59.326Z,12.16
2023-04-20T10:05:39.956Z,11.94
2023-04-20T10:08:07.701Z,12.26
2023-04-20T10:10:49.701Z,11.86
2023-04-20T10:13:19.527Z,11.79
2023-04-20T10:15:47.282Z,11.70
2023-04-20T10:18:20.038Z,11.81
2023-04-20T10:20:48.068Z,11.49
2023-04-20T10:23:16.576Z,11.54
2023-04-20T10:25:55.017Z,11.39
2023-04-20T10:28:22.417Z,11.70
2023-04-20T10:30:53.892Z,11.47
2023-04-20T10:33:22.917Z,11.43
2023-04-20T10:35:59.136Z,11.74
2023-04-20T10:38:34.356Z,11.49
2023-04-20T10:41:21.201Z,11.65
2023-04-20T10:43:48.677Z,11.59
2023-04-20T10:46:23.552Z,11.16
2023-04-20T10:48:53.597Z,11.34
2023-04-20T10:51:21.528Z,11.64
2023-04-20T10:54:08.657Z,11.45
2023-04-20T10:56:43.303Z,11.69
2023-04-20T10:59:13.372Z,11.37
2023-04-20T11:01:41.476Z,11.89
2023-04-20T11:04:11.001Z,12.10
2023-04-20T11:06:40.332Z,11.67
2023-04-20T11:09:26.575Z,11.90
2023-04-20T11:12:09.095Z,11.94
2023-04-20T11:14:38.632Z,12.02
2023-04-20T11:17:06.615Z,11.95
2023-04-20T11:19:37.279Z,11.90
2023-04-20T11:22:06.450Z,12.08
2023-04-20T11:24:35.964Z,12.38
2023-04-20T11:27:04.995Z,12.20
2023-04-20T11:29:35.879Z,12.38
2023-04-20T11:32:12.421Z,12.45
2023-04-20T11:34:40.489Z,12.61
2023-04-20T11:37:11.607Z,12.66
2023-04-20T11:39:39.961Z,12.83
2023-04-20T11:42:08.208Z,12.55
2023-04-20T11:44:36.945Z,12.45
2023-04-20T11:47:04.643Z,12.61
2023-04-20T11:49:32.239Z,12.46
2023-04-20T11:51:59.413Z,12.38
2023-04-20T11:54:28.514Z,12.17
2023-04-20T11:56:56.633Z,12.34
2023-04-20T11:59:24.054Z,12.13
2023-04-20T12:01:52.396Z,12.50
2023-04-20T12:04:20.409Z,12.31
2023-04-20T12:06:48.470Z,12.03
2023-04-20T12:09:16.006Z,11.91
2023-04-20T12:11:44.023Z,11.62
2023-04-20T12:14:11.603Z,11.27
2023-04-20T12:16:39.227Z,10.48
2023-04-20T12:19:09.454Z,9.90
2023-04-20T12:21:37.028Z,9.98
2023-04-20T12:24:04.454Z,10.21
2023-04-20T12:26:37.873Z,11.11
2023-04-20T12:29:07.277Z,10.75
2023-04-20T12:31:35.938Z,11.26
2023-04-20T12:34:04.413Z,11.44
2023-04-20T12:36:32.642Z,11.77
2023-04-20T12:39:00.592Z,12.06
2023-04-20T12:41:28.505Z,12.32
2023-04-20T12:43:56.384Z,11.81
2023-04-20T12:46:25.550Z,12.02
2023-04-20T12:48:52.698Z,11.20
2023-04-20T12:51:20.263Z,10.50
2023-04-20T12:53:47.739Z,10.51
2023-04-20T12:56:15.384Z,10.10
2023-04-20T12:58:43.677Z,10.16
2023-04-20T13:01:11.216Z,10.06
2023-04-20T13:03:38.805Z,10.25
2023-04-20T13:06:07.025Z,10.04
2023-04-20T13:08:37.028Z,10.04
2023-04-20T13:11:04.902Z,10.45
2023-04-20T13:13:32.498Z,10.60
2023-04-20T13:16:00.621Z,10.51
2023-04-20T13:18:28.348Z,10.73
2023-04-20T13:20:56.601Z,11.05
2023-04-20T13:23:24.052Z,11.34
2023-04-20T13:25:52.153Z,11.06
2023-04-20T13:28:19.726Z,10.92
2023-04-20T13:30:47.266Z,11.23
2023-04-20T13:33:14.854Z,10.99
2023-04-20T13:35:43.253Z,10.99
2023-04-20T13:38:10.972Z,11.20
2023-04-20T13:40:38.666Z,10.93
2023-04-20T13:43:06.337Z,11.23
2023-04-20T13:45:33.932Z,11.51
2023-04-20T13:48:01.629Z,11.28
2023-04-20T13:50:29.116Z,11.55
2023-04-20T13:52:56.610Z,11.43
2023-04-20T13:55:25.088Z,11.49
2023-04-20T13:57:54.411Z,11.41
2023-04-20T14:00:23.708Z,11.50
2023-04-20T14:02:51.536Z,11.63
2023-04-20T14:05:18.931Z,11.50
2023-04-20T14:07:46.337Z,11.28
2023-04-20T14:10:13.884Z,11.11
2023-04-20T14:12:41.476Z,10.92
2023-04-20T14:15:09.356Z,10.73
2023-04-20T14:17:36.800Z,10.80
2023-04-20T14:20:04.485Z,10.81
2023-04-20T14:22:36.159Z,10.86
2023-04-20T14:25:05.055Z,10.57
2023-04-20T14:27:32.733Z,10.32
2023-04-20T14:30:00.335Z,10.27
2023-04-20T14:32:27.443Z,10.14
2023-04-20T14:34:55.008Z,10.22
2023-04-20T14:37:25.060Z,10.05
2023-04-20T14:39:52.439Z,10.09
2023-04-20T14:42:20.871Z,9.96
2023-04-20T14:44:48.954Z,9.93
2023-04-20T14:47:16.924Z,9.81
2023-04-20T14:49:44.766Z,9.78
2023-04-20T14:52:12.255Z,9.67
2023-04-20T14:54:39.793Z,9.63
2023-04-20T14:57:07.832Z,9.62
2023-04-20T14:59:37.201Z,9.60
2023-04-20T15:02:05.963Z,9.62
2023-04-20T15:04:34.429Z,9.62
2023-04-20T15:07:02.101Z,9.72
2023-04-20T15:09:29.551Z,9.69
2023-04-20T15:14:32.955Z,9.80
2023-04-20T15:17:00.500Z,9.77
2023-04-20T15:19:27.810Z,9.79
2023-04-20T15:21:55.146Z,9.70
2023-04-20T15:24:22.860Z,9.64
2023-04-20T15:26:50.902Z,9.65
2023-04-20T15:29:18.360Z,9.74
2023-04-20T15:31:46.881Z,9.79
2023-04-20T15:34:17.279Z,9.66
2023-04-20T15:36:45.533Z,9.63
2023-04-20T15:39:13.170Z,9.67
2023-04-20T15:41:40.568Z,9.72
2023-04-20T15:44:08.099Z,9.69
2023-04-20T15:46:36.231Z,9.65
2023-04-20T15:49:03.695Z,9.68
2023-04-20T15:51:31.138Z,9.65
2023-04-20T15:53:58.739Z,9.66
2023-04-20T15:56:25.907Z,9.58
2023-04-20T15:58:53.413Z,9.55
2023-04-20T16:01:21.271Z,9.58
2023-04-20T16:03:50.125Z,9.64
2023-04-20T16:06:17.740Z,9.59
2023-04-20T16:08:45.403Z,9.43
2023-04-20T16:11:12.465Z,9.52
2023-04-20T16:13:39.840Z,9.45
2023-04-20T16:16:07.880Z,9.48
2023-04-20T16:18:35.417Z,9.58
2023-04-20T16:21:02.514Z,9.43
2023-04-20T16:23:29.976Z,9.46
2023-04-20T16:25:57.314Z,9.45
2023-04-20T16:28:24.692Z,9.46
2023-04-20T16:30:52.066Z,9.46
2023-04-20T16:33:19.767Z,9.47
2023-04-20T16:35:46.806Z,9.46
2023-04-20T16:38:14.253Z,9.44
2023-04-20T16:40:43.627Z,9.49
2023-04-20T16:43:11.024Z,9.45
2023-04-20T16:45:39.198Z,9.46
2023-04-20T16:48:08.397Z,9.47
2023-04-20T16:50:38.109Z,9.45
2023-04-20T16:53:06.835Z,9.44
2023-04-20T16:55:34.482Z,9.42
2023-04-20T16:58:02.004Z,9.35
2023-04-20T17:00:31.297Z,9.33
2023-04-20T17:03:01.551Z,9.40
2023-04-20T17:05:29.059Z,9.38
2023-04-20T17:07:56.474Z,9.26
2023-04-20T17:10:23.695Z,9.32
2023-04-20T17:12:51.179Z,9.25
2023-04-20T17:15:18.589Z,9.18
2023-04-20T17:17:46.014Z,9.14
2023-04-20T17:20:13.913Z,9.15
2023-04-20T17:22:41.937Z,9.15
2023-04-20T17:25:09.793Z,9.08
2023-04-20T17:27:37.114Z,9.11
2023-04-20T17:30:05.651Z,9.14
2023-04-20T17:32:33.551Z,9.09
2023-04-20T17:35:01.290Z,9.04
2023-04-20T17:37:28.915Z,9.11
2023-04-20T17:39:56.053Z,9.05
2023-04-20T17:42:30.076Z,8.97
2023-04-20T17:44:57.135Z,8.91
2023-04-20T17:47:25.013Z,8.98
2023-04-20T17:49:52.458Z,8.95
2023-04-20T17:52:20.141Z,8.85
2023-04-20T17:54:47.770Z,8.80
2023-04-20T17:57:15.423Z,8.74
2023-04-20T17:59:43.040Z,8.74
2023-04-20T18:02:11.840Z,8.73
2023-04-20T18:04:39.539Z,8.72
2023-04-20T18:07:06.947Z,8.74
2023-04-20T18:09:34.007Z,8.74
2023-04-20T18:12:01.982Z,8.72
2023-04-20T18:14:29.373Z,8.72
2023-04-20T18:16:56.963Z,8.66
2023-04-20T18:19:24.507Z,8.68
2023-04-20T18:21:51.946Z,8.57
2023-04-20T18:24:19.215Z,8.54
2023-04-20T18:26:46.920Z,8.61
2023-04-20T18:29:14.358Z,8.51
2023-04-20T18:31:42.199Z,8.55
2023-04-20T18:34:11.821Z,8.48
2023-04-20T18:36:40.139Z,8.45
2023-04-20T18:39:09.620Z,8.36
2023-04-20T18:41:37.626Z,8.43
2023-04-20T18:44:08.010Z,8.33
2023-04-20T18:46:35.530Z,8.34
2023-04-20T18:49:02.871Z,8.36
2023-04-20T18:51:32.113Z,8.32
2023-04-20T18:53:59.481Z,8.39
2023-04-20T18:56:26.846Z,8.32
2023-04-20T18:58:57.735Z,8.32
2023-04-20T19:01:25.387Z,8.19
2023-04-20T19:03:53.034Z,8.23
2023-04-20T19:06:20.604Z,8.31
2023-04-20T19:08:48.035Z,8.24
2023-04-20T19:11:15.545Z,8.25
2023-04-20T19:13:45.351Z,8.13
2023-04-20T19:16:13.223Z,8.18
2023-04-20T19:18:40.685Z,8.14
2023-04-20T19:21:08.015Z,8.13
2023-04-20T19:23:36.403Z,8.21
2023-04-20T19:26:04.241Z,8.18
2023-04-20T19:28:31.852Z,8.11
2023-04-20T19:31:00.042Z,8.06
2023-04-20T19:33:27.382Z,8.01
2023-04-20T19:35:56.400Z,8.05
2023-04-20T19:38:25.923Z,8.05
2023-04-20T19:40:53.926Z,8.10
2023-04-20T19:43:21.314Z,8.02
2023-04-20T19:45:48.882Z,8.05
2023-04-20T19:48:16.298Z,8.04
2023-04-20T19:50:43.619Z,8.10
2023-04-20T19:53:11.185Z,8.10
2023-04-20T19:55:38.604Z,8.09
2023-04-20T19:58:10.723Z,8.09
2023-04-20T20:00:38.892Z,8.04
2023-04-20T20:03:09.279Z,8.02
2023-04-20T20:05:36.389Z,8.04
2023-04-20T20:08:04.508Z,8.03
2023-04-20T20:10:32.426Z,8.00
2023-04-20T20:12:59.846Z,8.01
2023-04-20T20:15:27.415Z,8.02
2023-04-20T20:17:55.604Z,7.99
2023-04-20T20:20:23.101Z,8.00
2023-04-20T20:22:50.742Z,7.98
2023-04-20T20:25:21.263Z,8.00
2023-04-20T20:27:48.836Z,7.97
2023-04-20T20:30:16.498Z,8.03
2023-04-20T20:32:43.955Z,8.09
2023-04-20T20:35:13.185Z,8.05
2023-04-20T20:37:45.480Z,7.98
2023-04-20T20:40:15.234Z,7.98
2023-04-20T20:42:45.098Z,7.90
2023-04-20T20:45:12.954Z,7.92
2023-04-20T20:47:42.340Z,7.90
2023-04-20T20:50:10.983Z,7.91
2023-04-20T20:52:39.245Z,7.92
2023-04-20T20:55:09.849Z,7.97
2023-04-20T20:57:37.197Z,7.93
2023-04-20T21:00:08.356Z,7.85
2023-04-20T21:02:36.694Z,7.91
2023-04-20T21:05:04.771Z,7.83
2023-04-20T21:07:32.168Z,7.84
2023-04-20T21:09:59.530Z,7.81
2023-04-20T21:12:26.925Z,7.80
2023-04-20T21:14:54.403Z,7.78
2023-04-20T21:17:21.809Z,7.83
2023-04-20T21:19:49.131Z,7.81
2023-04-20T21:22:16.520Z,7.86
2023-04-20T21:24:43.872Z,7.85
2023-04-20T21:27:11.301Z,7.72
2023-04-20T21:29:38.742Z,7.82
2023-04-20T21:32:06.225Z,7.77
2023-04-20T21:34:33.672Z,7.81
2023-04-20T21:37:04.237Z,7.73
2023-04-20T21:39:35.179Z,7.78
2023-04-20T21:42:03.669Z,7.78
2023-04-20T21:44:31.105Z,7.78
2023-04-20T21:46:58.495Z,7.76
2023-04-20T21:49:25.850Z,7.78
2023-04-20T21:51:53.197Z,7.78
2023-04-20T21:54:20.628Z,7.78
2023-04-20T21:56:48.007Z,7.72
2023-04-20T21:59:15.456Z,7.63
2023-04-20T22:01:42.923Z,7.50
2023-04-20T22:04:10.654Z,7.29
2023-04-20T22:06:38.208Z,7.23
2023-04-20T22:09:05.590Z,7.21
2023-04-20T22:11:36.477Z,7.17
2023-04-20T22:14:04.666Z,7.11
2023-04-20T22:16:34.766Z,6.94
2023-04-20T22:19:02.496Z,6.96
2023-04-20T22:21:29.857Z,6.97
2023-04-20T22:23:57.250Z,6.82
2023-04-20T22:26:24.729Z,6.68
2023-04-20T22:28:52.104Z,6.76
2023-04-20T22:31:19.541Z,6.64
2023-04-20T22:33:46.928Z,6.67
2023-04-20T22:36:14.393Z,6.63
2023-04-20T22:38:41.817Z,6.64
2023-04-20T22:41:09.205Z,6.61
2023-04-20T22:43:36.568Z,6.54
2023-04-20T22:46:04.056Z,6.59
2023-04-20T22:48:31.485Z,6.75
2023-04-20T22:51:01.887Z,6.81
2023-04-20T22:53:32.231Z,6.79
2023-04-20T22:56:08.579Z,6.77
2023-04-20T22:58:36.249Z,6.73
2023-04-20T23:01:03.708Z,6.59
2023-04-20T23:03:31.506Z,6.54
2023-04-20T23:05:59.110Z,6.50
2023-04-20T23:08:28.391Z,6.47
2023-04-20T23:10:55.872Z,6.32
2023-04-20T23:13:26.393Z,6.32
2023-04-20T23:15:54.083Z,6.27
2023-04-20T23:18:21.636Z,6.23
2023-04-20T23:20:48.995Z,6.17
2023-04-20T23:23:16.328Z,6.16
2023-04-20T23:25:43.809Z,6.10
2023-04-20T23:28:11.217Z,6.02
2023-04-20T23:30:38.581Z,6.01
2023-04-20T23:33:06.054Z,5.85
2023-04-20T23:35:33.703Z,5.87
2023-04-20T23:38:01.384Z,5.86
2023-04-20T23:40:28.759Z,5.84
2023-04-20T23:42:56.201Z,5.83
2023-04-20T23:45:23.779Z,5.86
2023-04-20T23:47:51.201Z,5.82
2023-04-20T23:50:18.616Z,5.77
2023-04-20T23:52:45.996Z,5.62
2023-04-20T23:55:13.310Z,5.66
2023-04-20T23:57:40.699Z,5.70
